createdAt,value
2022-12-19T00:01:02.131Z,103200.63
2022-12-19T00:03:34.395Z,103200.63
2022-12-19T00:06:07.577Z,103197.44
2022-12-19T00:08:53.912Z,103192.34
2022-12-19T00:11:27.136Z,103193.08
2022-12-19T00:14:00.302Z,103184.79
2022-12-19T00:16:32.892Z,103183.52
2022-12-19T00:19:40.173Z,103180.99
2022-12-19T00:22:12.578Z,103184.18
2022-12-19T00:24:44.650Z,103180.60
2022-12-19T00:27:16.776Z,103179.35
2022-12-19T00:29:49.086Z,103171.11
2022-12-19T00:32:21.585Z,103171.20
2022-12-19T00:34:53.710Z,103161.39
2022-12-19T00:37:25.870Z,103163.29
2022-12-19T00:39:58.288Z,103168.84
2022-12-19T00:42:30.867Z,103167.80
2022-12-19T00:45:03.044Z,103165.77
2022-12-19T00:47:36.122Z,103162.98
2022-12-19T00:50:14.303Z,103164.11
2022-12-19T00:52:46.577Z,103164.45
2022-12-19T00:55:19.458Z,103157.51
2022-12-19T00:57:54.594Z,103151.27
2022-12-19T01:00:30.353Z,103148.33
2022-12-19T01:03:02.577Z,103147.23
2022-12-19T01:05:38.355Z,103142.20
2022-12-19T01:08:14.384Z,103140.83
2022-12-19T01:10:53.875Z,103132.15
2022-12-19T01:13:41.213Z,103127.00
2022-12-19T01:16:15.760Z,103122.73
2022-12-19T01:18:51.855Z,103105.56
2022-12-19T01:21:26.821Z,103087.81
2022-12-19T01:23:59.233Z,103087.40
2022-12-19T01:26:31.741Z,103087.52
2022-12-19T01:29:05.547Z,103090.13
2022-12-19T01:31:37.750Z,103086.13
2022-12-19T01:34:12.675Z,103090.42
2022-12-19T01:36:45.637Z,103083.79
2022-12-19T01:39:17.792Z,103080.58
2022-12-19T01:41:49.903Z,103089.07
2022-12-19T01:44:25.383Z,103085.30
2022-12-19T01:47:17.390Z,103077.17
2022-12-19T01:49:49.852Z,103078.89
2022-12-19T01:52:23.523Z,103074.58
2022-12-19T01:54:56.492Z,103075.67
2022-12-19T01:57:32.115Z,103073.23
2022-12-19T02:00:30.585Z,103066.84
2022-12-19T02:03:12.805Z,103068.52
2022-12-19T02:05:49.411Z,103066.80
2022-12-19T02:08:22.550Z,103068.02
2022-12-19T02:10:55.269Z,103066.41
2022-12-19T02:13:28.591Z,103064.91
2022-12-19T02:16:12.206Z,103058.02
2022-12-19T02:18:56.095Z,103063.08
2022-12-19T02:22:05.202Z,103064.95
2022-12-19T02:25:14.008Z,103065.77
2022-12-19T02:28:27.132Z,103062.55
2022-12-19T02:37:41.937Z,103041.20
2022-12-19T02:40:18.805Z,103032.63
2022-12-19T02:42:59.090Z,103035.16
2022-12-19T02:45:36.824Z,103028.27
2022-12-19T02:48:12.291Z,103024.33
2022-12-19T02:50:50.123Z,103023.95
2022-12-19T02:53:23.962Z,103024.98
2022-12-19T02:56:19.354Z,103027.82
2022-12-19T02:59:07.883Z,103030.23
2022-12-19T03:01:47.141Z,103031.39
2022-12-19T03:04:30.395Z,103027.94
2022-12-19T03:07:14.316Z,103026.55
2022-12-19T03:09:52.047Z,103021.48
2022-12-19T03:12:30.956Z,103015.56
2022-12-19T03:15:05.207Z,103013.04
2022-12-19T03:17:39.361Z,103010.33
2022-12-19T03:20:25.359Z,103011.50
2022-12-19T03:22:57.449Z,103015.13
2022-12-19T03:25:32.050Z,103013.67
2022-12-19T03:28:08.871Z,103008.16
2022-12-19T03:30:43.930Z,103007.21
2022-12-19T03:33:22.474Z,103001.02
2022-12-19T03:35:59.222Z,102995.73
2022-12-19T03:38:32.485Z,102990.20
2022-12-19T03:41:11.726Z,102985.95
2022-12-19T03:43:47.214Z,102983.82
2022-12-19T03:46:27.662Z,102985.66
2022-12-19T03:49:00.243Z,102979.36
2022-12-19T03:51:41.961Z,102975.21
2022-12-19T03:54:21.027Z,102970.63
2022-12-19T03:57:00.679Z,102968.60
2022-12-19T03:59:41.509Z,102962.48
2022-12-19T04:02:16.771Z,102956.60
2022-12-19T04:04:53.527Z,102958.25
2022-12-19T04:07:26.664Z,102953.96
2022-12-19T04:10:01.665Z,102948.84
2022-12-19T04:12:38.645Z,102950.05
2022-12-19T04:15:12.458Z,102947.69
2022-12-19T04:17:49.680Z,102947.14
2022-12-19T04:20:26.065Z,102948.80
2022-12-19T04:23:05.091Z,102941.54
2022-12-19T04:25:42.577Z,102940.40
2022-12-19T04:28:20.136Z,102941.56
2022-12-19T04:30:53.620Z,102938.96
2022-12-19T04:33:26.405Z,102935.08
2022-12-19T04:35:58.626Z,102930.69
2022-12-19T04:38:31.044Z,102928.29
2022-12-19T04:41:03.241Z,102929.20
2022-12-19T04:43:35.391Z,102928.61
2022-12-19T04:46:07.780Z,102925.70
2022-12-19T04:48:40.352Z,102927.61
2022-12-19T04:51:12.850Z,102920.81
2022-12-19T04:53:44.945Z,102911.61
2022-12-19T04:56:17.793Z,102907.08
2022-12-19T04:58:49.938Z,102904.83
2022-12-19T05:04:08.496Z,102900.94
2022-12-19T05:06:41.139Z,102903.27
2022-12-19T05:09:14.028Z,102900.84
2022-12-19T05:11:46.211Z,102902.09
2022-12-19T05:14:18.315Z,102897.27
2022-12-19T05:17:14.283Z,102892.71
2022-12-19T05:23:46.545Z,102895.55
2022-12-19T05:26:34.006Z,102896.48
2022-12-19T05:29:17.283Z,102889.25
2022-12-19T05:32:44.482Z,102888.45
2022-12-19T05:35:39.726Z,102888.11
2022-12-19T05:39:45.339Z,102881.61
2022-12-19T05:42:17.452Z,102877.59
2022-12-19T05:44:52.464Z,102870.63
2022-12-19T05:47:24.615Z,102868.81
2022-12-19T05:49:56.885Z,102873.69
2022-12-19T05:52:29.115Z,102876.27
2022-12-19T05:55:01.770Z,102869.44
2022-12-19T05:57:34.405Z,102857.84
2022-12-19T06:00:10.275Z,102860.50
2022-12-19T06:02:53.383Z,102851.57
2022-12-19T06:08:57.384Z,102849.08
2022-12-19T06:11:30.243Z,102848.52
2022-12-19T06:14:02.339Z,102850.46
2022-12-19T06:16:34.539Z,102853.46
2022-12-19T06:19:06.919Z,102843.71
2022-12-19T06:21:47.869Z,102829.81
2022-12-19T06:24:21.503Z,102838.52
2022-12-19T06:26:53.745Z,102838.85
2022-12-19T06:29:26.559Z,102833.10
2022-12-19T06:31:59.146Z,102831.39
2022-12-19T06:35:03.634Z,102828.01
2022-12-19T06:37:24.560Z,102829.66
2022-12-19T06:39:56.863Z,102823.63
2022-12-19T06:42:29.163Z,102825.82
2022-12-19T06:45:01.538Z,102826.96
2022-12-19T06:47:34.793Z,102830.19
2022-12-19T06:50:07.774Z,102830.09
2022-12-19T06:52:40.003Z,102839.80
2022-12-19T06:55:12.895Z,102838.77
2022-12-19T06:57:46.594Z,102841.27
2022-12-19T07:00:20.564Z,102843.89
2022-12-19T07:03:01.174Z,102839.17
2022-12-19T07:05:33.599Z,102842.12
2022-12-19T07:08:06.131Z,102837.88
2022-12-19T07:13:28.921Z,102829.02
2022-12-19T07:16:05.229Z,102838.35
2022-12-19T07:18:41.101Z,102831.61
2022-12-19T07:21:13.681Z,102829.92
2022-12-19T07:23:47.094Z,102833.12
2022-12-19T07:26:19.265Z,102824.60
2022-12-19T07:28:51.585Z,102822.52
2022-12-19T07:31:43.421Z,102819.81
2022-12-19T07:34:16.170Z,102815.90
2022-12-19T07:40:12.430Z,102803.52
2022-12-19T07:42:46.964Z,102799.90
2022-12-19T07:45:20.278Z,102800.34
2022-12-19T07:47:55.222Z,102798.91
2022-12-19T07:50:27.352Z,102790.21
2022-12-19T07:53:00.424Z,102781.68
2022-12-19T07:55:33.683Z,102771.91
2022-12-19T07:58:05.949Z,102766.41
2022-12-19T08:00:40.480Z,102758.90
2022-12-19T08:03:15.588Z,102766.83
2022-12-19T08:05:54.351Z,102754.47
2022-12-19T08:08:30.439Z,102751.45
2022-12-19T08:11:11.736Z,102751.80
2022-12-19T08:13:46.705Z,102742.24
2022-12-19T08:16:22.067Z,102743.30
2022-12-19T08:18:55.894Z,102741.38
2022-12-19T08:21:28.246Z,102746.89
2022-12-19T08:24:09.322Z,102744.68
2022-12-19T08:26:47.440Z,102736.73
2022-12-19T08:29:20.202Z,102739.51
2022-12-19T08:31:52.400Z,102730.66
2022-12-19T08:34:45.115Z,102723.79
2022-12-19T08:37:57.601Z,102714.29
2022-12-19T08:40:53.096Z,102696.48
2022-12-19T08:43:27.627Z,102695.45
2022-12-19T08:45:59.927Z,102699.68
2022-12-19T08:48:32.675Z,102691.48
2022-12-19T08:51:08.238Z,102695.31
2022-12-19T08:53:43.371Z,102688.21
2022-12-19T08:56:19.696Z,102681.74
2022-12-19T08:58:53.680Z,102679.17
2022-12-19T09:01:26.061Z,102678.77
2022-12-19T09:05:58.068Z,102672.42
2022-12-19T09:06:53.250Z,102672.70
2022-12-19T09:09:25.579Z,102671.91
2022-12-19T09:11:57.847Z,102659.55
2022-12-19T09:14:33.459Z,102654.17
2022-12-19T09:17:05.774Z,102650.29
2022-12-19T09:19:38.053Z,102639.02
2022-12-19T09:22:12.033Z,102636.11
2022-12-19T09:24:44.276Z,102635.02
2022-12-19T09:27:16.717Z,102630.95
2022-12-19T09:29:48.913Z,102614.88
2022-12-19T09:32:21.351Z,102602.13
2022-12-19T09:34:53.647Z,102592.25
2022-12-19T09:37:25.896Z,102587.17
2022-12-19T09:39:59.335Z,102591.38
2022-12-19T09:42:46.480Z,102589.16
2022-12-19T09:45:34.794Z,102580.63
2022-12-19T09:48:14.130Z,102569.52
2022-12-19T09:51:09.312Z,102568.73
2022-12-19T09:53:56.806Z,102572.23
2022-12-19T09:56:37.599Z,102563.70
2022-12-19T09:59:28.470Z,102554.86
2022-12-19T10:02:38.830Z,102553.71
2022-12-19T10:05:36.542Z,102547.57
2022-12-19T10:08:19.096Z,102543.47
2022-12-19T10:12:40.854Z,102536.60
2022-12-19T10:14:13.661Z,102528.56
2022-12-19T10:17:23.163Z,102519.06
2022-12-19T10:20:04.615Z,102513.23
2022-12-19T10:22:44.667Z,102508.48
2022-12-19T10:25:38.711Z,102500.51
2022-12-19T10:28:25.708Z,102492.02
2022-12-19T10:31:18.880Z,102481.69
2022-12-19T10:33:59.441Z,102474.35
2022-12-19T10:37:13.065Z,102463.52
2022-12-19T10:39:35.264Z,102450.34
2022-12-19T10:42:14.751Z,102449.33
2022-12-19T10:44:52.047Z,102441.98
2022-12-19T10:47:24.757Z,102435.29
2022-12-19T10:49:57.146Z,102434.58
2022-12-19T10:52:53.440Z,102441.33
2022-12-19T10:55:47.484Z,102434.27
2022-12-19T10:58:28.124Z,102433.84
2022-12-19T11:01:06.506Z,102433.54
2022-12-19T11:03:40.532Z,102440.67
2022-12-19T11:06:54.922Z,102446.44
2022-12-19T11:09:30.828Z,102444.37
2022-12-19T11:14:33.929Z,102429.61
2022-12-19T11:21:03.261Z,102421.01
2022-12-19T11:27:20.740Z,102415.83
2022-12-19T11:30:45.721Z,102402.23
2022-12-19T11:30:46.076Z,102393.61
2022-12-19T11:32:48.420Z,102391.28
2022-12-19T11:35:24.657Z,102389.59
2022-12-19T11:37:59.382Z,102392.89
2022-12-19T11:40:40.427Z,102391.27
2022-12-19T11:46:34.584Z,102374.90
2022-12-19T11:49:13.413Z,102371.38
2022-12-19T11:51:56.679Z,102363.92
2022-12-19T11:54:32.914Z,102355.89
2022-12-19T11:57:05.120Z,102351.46
2022-12-19T11:59:40.061Z,102343.23
2022-12-19T12:02:41.632Z,102331.66
2022-12-19T12:05:43.356Z,102325.30
2022-12-19T12:09:33.675Z,102328.61
2022-12-19T12:15:13.786Z,102328.78
2022-12-19T12:27:17.374Z,102328.05
2022-12-19T12:31:11.599Z,102330.42
2022-12-19T12:31:16.107Z,102323.34
2022-12-19T12:31:28.655Z,102315.14
2022-12-19T12:31:46.050Z,102307.84
2022-12-19T12:32:04.206Z,102297.55
2022-12-19T12:35:30.672Z,102287.39
2022-12-19T12:39:24.350Z,102286.50
2022-12-19T12:42:12.854Z,102283.09
2022-12-19T12:45:18.092Z,102275.20
2022-12-19T12:47:55.682Z,102270.92
2022-12-19T12:50:32.703Z,102260.77
2022-12-19T12:53:10.670Z,102255.76
2022-12-19T12:55:44.530Z,102250.38
2022-12-19T12:58:54.349Z,102249.62
2022-12-19T13:01:34.805Z,102241.38
2022-12-19T13:04:21.747Z,102227.11
2022-12-19T13:07:28.368Z,102223.53
2022-12-19T13:10:41.179Z,102218.36
2022-12-19T13:13:22.572Z,102210.63
2022-12-19T13:15:59.816Z,102206.30
2022-12-19T13:18:37.953Z,102213.77
2022-12-19T13:21:12.114Z,102212.56
2022-12-19T13:23:50.108Z,102212.01
2022-12-19T13:26:55.032Z,102205.73
2022-12-19T13:29:57.459Z,102197.59
2022-12-19T13:32:55.404Z,102185.16
2022-12-19T13:39:02.482Z,102189.90
2022-12-19T13:39:59.029Z,102184.98
2022-12-19T13:42:03.241Z,102180.18
2022-12-19T13:44:43.543Z,102175.17
2022-12-19T13:47:23.446Z,102178.39
2022-12-19T13:49:56.817Z,102186.11
2022-12-19T13:52:29.211Z,102184.52
2022-12-19T13:55:01.809Z,102181.66
2022-12-19T13:57:39.622Z,102167.60
2022-12-19T14:00:20.706Z,102155.81
2022-12-19T14:02:56.336Z,102160.11
2022-12-19T14:06:15.965Z,102160.02
2022-12-19T14:08:33.662Z,102159.33
2022-12-19T14:11:39.889Z,102155.89
2022-12-19T14:14:28.222Z,102149.15
2022-12-19T14:17:09.492Z,102149.36
2022-12-19T14:19:44.793Z,102153.05
2022-12-19T14:22:26.715Z,102148.67
2022-12-19T14:25:49.299Z,102125.40
2022-12-19T14:28:25.803Z,102111.69
2022-12-19T14:30:59.828Z,102111.91
2022-12-19T14:33:43.419Z,102116.70
2022-12-19T14:36:29.772Z,102116.32
2022-12-19T14:39:26.693Z,102123.40
2022-12-19T14:42:49.340Z,102125.52
2022-12-19T14:52:34.940Z,102122.13
2022-12-19T14:54:21.440Z,102121.10
2022-12-19T14:54:35.861Z,102124.23
2022-12-19T14:58:50.681Z,102112.88
2022-12-19T15:01:07.124Z,102105.30
2022-12-19T15:03:30.752Z,102106.13
2022-12-19T15:06:31.550Z,102103.12
2022-12-19T15:11:05.182Z,102098.12
2022-12-19T15:14:46.691Z,102088.18
2022-12-19T15:15:27.378Z,102089.33
2022-12-19T15:18:25.621Z,102081.80
2022-12-19T15:21:04.104Z,102073.09
2022-12-19T15:23:36.605Z,102068.23
2022-12-19T15:26:15.804Z,102061.36
2022-12-19T15:28:50.963Z,102055.11
2022-12-19T15:31:38.670Z,102049.80
2022-12-19T15:34:40.073Z,102048.83
2022-12-19T15:37:15.887Z,102036.48
2022-12-19T15:39:48.506Z,102031.51
2022-12-19T15:42:27.237Z,102022.45
2022-12-19T15:45:01.332Z,102017.34
2022-12-19T15:47:36.049Z,102018.55
2022-12-19T15:50:18.957Z,102004.22
2022-12-19T15:52:51.380Z,101999.27
2022-12-19T15:55:28.356Z,101986.55
2022-12-19T15:58:05.195Z,101982.95
2022-12-19T16:00:39.917Z,101983.73
2022-12-19T16:03:25.117Z,101992.20
2022-12-19T16:05:59.062Z,101993.04
2022-12-19T16:08:31.827Z,101994.96
2022-12-19T16:11:03.962Z,101988.75
2022-12-19T16:13:37.503Z,101985.23
2022-12-19T16:16:15.738Z,101980.11
2022-12-19T16:19:42.621Z,101963.67
2022-12-19T16:22:20.769Z,101959.98
2022-12-19T16:24:59.257Z,101960.71
2022-12-19T16:27:35.011Z,101965.48
2022-12-19T16:31:01.735Z,101971.08
2022-12-19T16:33:34.282Z,101964.29
2022-12-19T16:36:07.635Z,101959.10
2022-12-19T16:38:40.042Z,101957.58
2022-12-19T16:41:21.623Z,101950.16
2022-12-19T16:43:56.231Z,101948.88
2022-12-19T16:46:31.106Z,101942.21
2022-12-19T16:49:12.052Z,101937.48
2022-12-19T16:51:47.819Z,101930.88
2022-12-19T16:54:21.215Z,101927.11
2022-12-19T17:09:25.801Z,101909.51
2022-12-19T17:12:02.525Z,101910.86
2022-12-19T17:14:38.919Z,101907.61
2022-12-19T17:17:16.597Z,101904.64
2022-12-19T17:19:56.157Z,101898.91
2022-12-19T17:23:33.588Z,101903.34
2022-12-19T17:26:23.998Z,101890.92
2022-12-19T17:29:28.930Z,101890.29
2022-12-19T17:32:01.365Z,101883.37
2022-12-19T17:34:34.965Z,101882.42
2022-12-19T17:37:10.181Z,101883.29
2022-12-19T17:39:43.333Z,101885.30
2022-12-19T17:42:22.563Z,101882.48
2022-12-19T17:44:59.611Z,101882.52
2022-12-19T17:47:32.079Z,101885.14
2022-12-19T17:50:23.883Z,101880.80
2022-12-19T17:52:58.199Z,101872.88
2022-12-19T17:55:33.456Z,101866.77
2022-12-19T17:58:09.712Z,101860.54
2022-12-19T18:00:43.170Z,101859.59
2022-12-19T18:03:24.376Z,101853.07
2022-12-19T18:05:59.258Z,101850.89
2022-12-19T18:08:33.935Z,101848.77
2022-12-19T18:11:21.274Z,101849.41
2022-12-19T18:13:55.523Z,101855.67
2022-12-19T18:16:31.126Z,101858.09
2022-12-19T18:19:06.324Z,101848.70
2022-12-19T18:21:39.181Z,101843.13
2022-12-19T18:24:14.859Z,101836.91
2022-12-19T18:26:47.214Z,101832.48
2022-12-19T18:29:19.348Z,101831.91
2022-12-19T18:31:51.656Z,101834.07
2022-12-19T18:34:27.047Z,101827.61
2022-12-19T18:36:59.382Z,101824.20
2022-12-19T18:39:58.369Z,101819.94
2022-12-19T18:42:33.529Z,101812.45
2022-12-19T18:45:06.343Z,101814.30
2022-12-19T18:47:39.008Z,101808.95
2022-12-19T18:50:18.803Z,101802.27
2022-12-19T18:52:52.115Z,101800.23
2022-12-19T18:55:28.377Z,101796.86
2022-12-19T18:58:00.718Z,101794.80
2022-12-19T19:00:36.641Z,101796.91
2022-12-19T19:03:14.349Z,101793.69
2022-12-19T19:05:47.627Z,101792.45
2022-12-19T19:08:23.760Z,101787.52
2022-12-19T19:11:25.411Z,101781.37
2022-12-19T19:13:57.633Z,101774.45
2022-12-19T19:16:30.850Z,101768.70
2022-12-19T19:19:03.373Z,101767.77
2022-12-19T19:21:37.194Z,101768.68
2022-12-19T19:24:13.401Z,101766.56
2022-12-19T19:26:46.053Z,101763.13
2022-12-19T19:29:19.773Z,101760.32
2022-12-19T19:31:54.793Z,101757.95
2022-12-19T19:34:30.793Z,101753.56
2022-12-19T19:37:11.545Z,101751.42
2022-12-19T19:42:48.509Z,101749.23
2022-12-19T19:45:20.961Z,101742.05
2022-12-19T19:48:02.499Z,101746.34
2022-12-19T19:50:35.287Z,101736.36
2022-12-19T19:53:07.890Z,101734.92
2022-12-19T19:55:40.147Z,101732.30
2022-12-19T19:58:12.464Z,101730.43
2022-12-19T20:01:19.090Z,101727.83
2022-12-19T20:03:55.876Z,101720.92
2022-12-19T20:06:28.275Z,101716.28
2022-12-19T20:09:00.575Z,101714.46
2022-12-19T20:11:33.767Z,101714.23
2022-12-19T20:14:06.040Z,101714.63
2022-12-19T20:16:38.451Z,101710.05
2022-12-19T20:19:13.152Z,101705.27
2022-12-19T20:21:46.111Z,101695.23
2022-12-19T20:24:20.730Z,101690.12
2022-12-19T20:26:52.956Z,101693.88
2022-12-19T20:29:25.689Z,101688.91
2022-12-19T20:31:58.079Z,101687.71
2022-12-19T20:34:30.481Z,101683.54
2022-12-19T20:37:02.635Z,101673.70
2022-12-19T20:39:35.024Z,101667.21
2022-12-19T20:42:09.567Z,101662.57
2022-12-19T20:44:45.044Z,101656.45
2022-12-19T20:47:17.330Z,101653.81
2022-12-19T20:49:49.491Z,101651.95
2022-12-19T20:52:27.649Z,101650.63
2022-12-19T20:55:02.293Z,101652.36
2022-12-19T20:57:34.948Z,101656.55
2022-12-19T21:00:18.959Z,101654.94
2022-12-19T21:03:40.318Z,101647.52
2022-12-19T21:06:15.069Z,101651.21
2022-12-19T21:08:48.010Z,101642.83
2022-12-19T21:11:20.311Z,101640.45
2022-12-19T21:13:52.686Z,101641.52
2022-12-19T21:16:25.406Z,101646.01
2022-12-19T21:18:57.814Z,101640.17
2022-12-19T21:21:30.366Z,101634.59
2022-12-19T21:24:04.739Z,101631.42
2022-12-19T21:26:36.907Z,101626.84
2022-12-19T21:29:09.091Z,101624.95
2022-12-19T21:31:41.323Z,101620.56
2022-12-19T21:34:14.129Z,101619.88
2022-12-19T21:36:46.321Z,101615.45
2022-12-19T21:39:21.020Z,101612.00
2022-12-19T21:42:00.468Z,101615.05
2022-12-19T21:44:34.575Z,101613.34
2022-12-19T21:47:07.072Z,101610.54
2022-12-19T21:49:42.186Z,101607.81
2022-12-19T21:52:14.557Z,101606.74
2022-12-19T21:54:46.715Z,101603.31
2022-12-19T21:57:18.924Z,101600.13
2022-12-19T22:00:06.031Z,101592.76
2022-12-19T22:02:38.529Z,101594.44
2022-12-19T22:05:13.121Z,101591.28
2022-12-19T22:07:52.119Z,101586.63
2022-12-19T22:10:27.670Z,101585.11
2022-12-19T22:12:59.872Z,101581.98
2022-12-19T22:15:32.626Z,101580.08
2022-12-19T22:18:09.172Z,101573.42
2022-12-19T22:25:07.065Z,101570.75
2022-12-19T22:27:39.413Z,101568.19
2022-12-19T22:30:13.066Z,101563.06
2022-12-19T22:32:45.227Z,101564.81
2022-12-19T22:35:17.857Z,101562.25
2022-12-19T22:37:50.151Z,101559.68
2022-12-19T22:40:24.947Z,101557.15
2022-12-19T22:42:57.312Z,101556.86
2022-12-19T22:45:32.674Z,101554.40
2022-12-19T22:48:05.202Z,101552.27
2022-12-19T22:50:37.399Z,101550.88
2022-12-19T22:53:12.734Z,101545.04
2022-12-19T22:55:48.739Z,101543.01
2022-12-19T22:58:30.237Z,101537.54
2022-12-19T23:01:06.421Z,101539.30
2022-12-19T23:03:41.012Z,101531.17
2022-12-19T23:06:17.098Z,101532.13
2022-12-19T23:08:49.759Z,101526.30
2022-12-19T23:11:24.980Z,101523.78
2022-12-19T23:13:57.397Z,101522.98
2022-12-19T23:16:32.973Z,101527.98
2022-12-19T23:19:05.314Z,101525.21
2022-12-19T23:21:42.246Z,101522.64
2022-12-19T23:24:15.156Z,101522.23
2022-12-19T23:26:47.804Z,101515.13
2022-12-19T23:29:20.245Z,101511.02
2022-12-19T23:31:55.210Z,101504.48
2022-12-19T23:34:27.399Z,101500.54
2022-12-19T23:37:10.614Z,101496.30
2022-12-19T23:39:46.502Z,101493.89
2022-12-19T23:42:21.255Z,101492.70
2022-12-19T23:44:53.563Z,101492.69
2022-12-19T23:47:29.901Z,101495.19
2022-12-19T23:50:02.098Z,101496.25
2022-12-19T23:52:34.307Z,101489.38
2022-12-19T23:55:10.574Z,101491.02
2022-12-19T23:57:47.825Z,101486.61
